sensor_id;sensor_type;location;lat;lon;timestamp;pressure;altitude;pressure_sealevel;temperature;humidity
62617;BME280;62539;51.190;6.808;2023-08-07T00:00:22;100911.75;;;19.58;68.07
62617;BME280;62539;51.190;6.808;2023-08-07T00:02:48;100922.38;;;19.55;68.32
62617;BME280;62539;51.190;6.808;2023-08-07T00:05:14;100914.50;;;19.55;68.18
62617;BME280;62539;51.190;6.808;2023-08-07T00:07:39;100916.28;;;19.54;68.35
62617;BME280;62539;51.190;6.808;2023-08-07T00:10:05;100913.69;;;19.53;68.14
62617;BME280;62539;51.190;6.808;2023-08-07T00:12:31;100922.50;;;19.52;68.16
62617;BME280;62539;51.190;6.808;2023-08-07T00:14:57;100925.13;;;19.52;68.13
62617;BME280;62539;51.190;6.808;2023-08-07T00:17:22;100918.22;;;19.49;68.34
62617;BME280;62539;51.190;6.808;2023-08-07T00:19:47;100918.16;;;19.51;67.91
62617;BME280;62539;51.190;6.808;2023-08-07T00:22:13;100919.06;;;19.50;68.18
62617;BME280;62539;51.190;6.808;2023-08-07T00:24:38;100927.88;;;19.49;68.00
62617;BME280;62539;51.190;6.808;2023-08-07T00:27:04;100918.34;;;19.46;68.30
62617;BME280;62539;51.190;6.808;2023-08-07T00:29:29;100929.78;;;19.45;68.39
62617;BME280;62539;51.190;6.808;2023-08-07T00:31:55;100921.00;;;19.45;68.38
62617;BME280;62539;51.190;6.808;2023-08-07T00:34:20;100938.59;;;19.43;68.40
62617;BME280;62539;51.190;6.808;2023-08-07T00:36:46;100921.97;;;19.42;68.50
62617;BME280;62539;51.190;6.808;2023-08-07T00:39:11;100928.09;;;19.43;68.27
62617;BME280;62539;51.190;6.808;2023-08-07T00:41:36;100926.38;;;19.42;68.44
62617;BME280;62539;51.190;6.808;2023-08-07T00:44:02;100934.22;;;19.43;68.48
62617;BME280;62539;51.190;6.808;2023-08-07T00:46:29;100942.16;;;19.42;68.52
62617;BME280;62539;51.190;6.808;2023-08-07T00:48:55;100943.06;;;19.41;68.26
62617;BME280;62539;51.190;6.808;2023-08-07T00:51:23;100945.66;;;19.42;68.42
62617;BME280;62539;51.190;6.808;2023-08-07T00:53:49;100939.59;;;19.40;68.29
62617;BME280;62539;51.190;6.808;2023-08-07T00:56:15;100929.13;;;19.38;68.45
62617;BME280;62539;51.190;6.808;2023-08-07T00:58:41;100937.00;;;19.38;68.30
62617;BME280;62539;51.190;6.808;2023-08-07T01:01:07;100930.03;;;19.37;68.51
62617;BME280;62539;51.190;6.808;2023-08-07T01:03:32;100932.72;;;19.36;68.35
62617;BME280;62539;51.190;6.808;2023-08-07T01:05:59;100945.81;;;19.37;68.37
62617;BME280;62539;51.190;6.808;2023-08-07T01:08:25;100936.19;;;19.36;68.16
62617;BME280;62539;51.190;6.808;2023-08-07T01:11:55;100941.53;;;19.35;68.47
62617;BME280;62539;51.190;6.808;2023-08-07T01:14:28;100938.13;;;19.31;68.62
62617;BME280;62539;51.190;6.808;2023-08-07T01:17:14;100940.75;;;19.31;68.42
62617;BME280;62539;51.190;6.808;2023-08-07T01:19:41;100949.53;;;19.32;68.43
62617;BME280;62539;51.190;6.808;2023-08-07T01:22:15;100938.19;;;19.30;68.46
62617;BME280;62539;51.190;6.808;2023-08-07T01:24:47;100944.31;;;19.30;68.47
62617;BME280;62539;51.190;6.808;2023-08-07T01:29:57;100947.84;;;19.29;68.55
62617;BME280;62539;51.190;6.808;2023-08-07T01:32:43;100944.41;;;19.27;68.73
62617;BME280;62539;51.190;6.808;2023-08-07T01:35:17;100952.31;;;19.27;68.72
62617;BME280;62539;51.190;6.808;2023-08-07T01:37:47;100954.31;;;19.20;69.02
62617;BME280;62539;51.190;6.808;2023-08-07T01:40:21;100941.97;;;19.22;68.48
62617;BME280;62539;51.190;6.808;2023-08-07T01:42:48;100951.56;;;19.23;68.71
62617;BME280;62539;51.190;6.808;2023-08-07T01:45:22;100956.03;;;19.21;68.78
62617;BME280;62539;51.190;6.808;2023-08-07T01:47:51;100951.59;;;19.22;68.88
62617;BME280;62539;51.190;6.808;2023-08-07T01:50:18;100945.44;;;19.23;68.60
62617;BME280;62539;51.190;6.808;2023-08-07T01:52:45;100942.81;;;19.23;68.67
62617;BME280;62539;51.190;6.808;2023-08-07T01:55:15;100945.44;;;19.23;68.67
62617;BME280;62539;51.190;6.808;2023-08-07T01:57:41;100951.59;;;19.22;68.62
62617;BME280;62539;51.190;6.808;2023-08-07T02:00:08;100953.31;;;19.23;68.55
62617;BME280;62539;51.190;6.808;2023-08-07T02:02:34;100951.59;;;19.22;68.65
62617;BME280;62539;51.190;6.808;2023-08-07T02:05:01;100954.22;;;19.22;68.83
62617;BME280;62539;51.190;6.808;2023-08-07T02:07:26;100960.41;;;19.21;68.86
62617;BME280;62539;51.190;6.808;2023-08-07T02:09:52;100967.50;;;19.19;68.75
62617;BME280;62539;51.190;6.808;2023-08-07T02:12:17;100956.13;;;19.18;68.72
62617;BME280;62539;51.190;6.808;2023-08-07T02:14:42;100963.13;;;19.18;68.67
62617;BME280;62539;51.190;6.808;2023-08-07T02:17:08;100969.31;;;19.17;68.69
62617;BME280;62539;51.190;6.808;2023-08-07T02:19:34;100972.84;;;19.16;68.85
62617;BME280;62539;51.190;6.808;2023-08-07T02:21:59;100965.03;;;19.14;68.83
62617;BME280;62539;51.190;6.808;2023-08-07T02:24:25;100958.91;;;19.14;68.83
62617;BME280;62539;51.190;6.808;2023-08-07T02:26:50;100965.97;;;19.12;69.11
62617;BME280;62539;51.190;6.808;2023-08-07T02:29:16;100968.66;;;19.10;68.98
62617;BME280;62539;51.190;6.808;2023-08-07T02:31:41;100967.78;;;19.09;68.92
62617;BME280;62539;51.190;6.808;2023-08-07T02:34:07;100965.25;;;19.08;69.30
62617;BME280;62539;51.190;6.808;2023-08-07T02:36:32;100969.63;;;19.07;68.82
62617;BME280;62539;51.190;6.808;2023-08-07T02:38:57;100966.19;;;19.05;68.75
62617;BME280;62539;51.190;6.808;2023-08-07T02:41:23;100963.56;;;19.05;69.17
62617;BME280;62539;51.190;6.808;2023-08-07T02:43:48;100962.75;;;19.03;69.11
62617;BME280;62539;51.190;6.808;2023-08-07T02:46:14;100971.53;;;19.02;69.26
62617;BME280;62539;51.190;6.808;2023-08-07T02:48:39;100975.09;;;19.01;69.14
62617;BME280;62539;51.190;6.808;2023-08-07T02:51:05;100974.25;;;19.01;69.33
62617;BME280;62539;51.190;6.808;2023-08-07T02:53:31;100983.88;;;19.00;69.47
62617;BME280;62539;51.190;6.808;2023-08-07T02:55:56;100969.00;;;18.99;69.27
62617;BME280;62539;51.190;6.808;2023-08-07T02:58:22;100970.81;;;18.99;69.37
62617;BME280;62539;51.190;6.808;2023-08-07T03:00:47;100966.47;;;18.98;69.39
62617;BME280;62539;51.190;6.808;2023-08-07T03:03:13;100970.84;;;18.97;69.15
62617;BME280;62539;51.190;6.808;2023-08-07T03:05:38;100973.47;;;18.97;69.46
62617;BME280;62539;51.190;6.808;2023-08-07T03:08:03;100970.88;;;18.95;69.22
62617;BME280;62539;51.190;6.808;2023-08-07T03:10:29;100979.59;;;18.96;69.33
62617;BME280;62539;51.190;6.808;2023-08-07T03:12:54;100976.13;;;18.95;69.51
62617;BME280;62539;51.190;6.808;2023-08-07T03:15:20;100980.50;;;18.95;69.50
62617;BME280;62539;51.190;6.808;2023-08-07T03:17:45;100983.22;;;18.93;69.45
62617;BME280;62539;51.190;6.808;2023-08-07T03:20:11;100987.56;;;18.94;69.40
62617;BME280;62539;51.190;6.808;2023-08-07T03:22:36;100984.97;;;18.93;69.31
62617;BME280;62539;51.190;6.808;2023-08-07T03:25:02;100979.78;;;18.91;69.63
62617;BME280;62539;51.190;6.808;2023-08-07T03:27:28;100982.34;;;18.93;69.55
62617;BME280;62539;51.190;6.808;2023-08-07T03:29:53;100973.53;;;18.94;69.37
62617;BME280;62539;51.190;6.808;2023-08-07T03:32:18;100982.34;;;18.93;69.33
62617;BME280;62539;51.190;6.808;2023-08-07T03:34:44;100977.97;;;18.92;69.49
62617;BME280;62539;51.190;6.808;2023-08-07T03:37:09;100984.97;;;18.93;69.54
62617;BME280;62539;51.190;6.808;2023-08-07T03:39:35;100987.59;;;18.93;69.43
62617;BME280;62539;51.190;6.808;2023-08-07T03:42:00;100988.56;;;18.90;69.57
62617;BME280;62539;51.190;6.808;2023-08-07T03:44:25;100988.56;;;18.90;69.55
62617;BME280;62539;51.190;6.808;2023-08-07T03:46:51;100988.56;;;18.90;69.62
62617;BME280;62539;51.190;6.808;2023-08-07T03:49:16;100986.84;;;18.89;69.46
62617;BME280;62539;51.190;6.808;2023-08-07T03:51:42;100992.94;;;18.90;69.06
62617;BME280;62539;51.190;6.808;2023-08-07T03:54:07;100985.06;;;18.90;69.54
62617;BME280;62539;51.190;6.808;2023-08-07T03:56:33;100989.41;;;18.91;69.42
62617;BME280;62539;51.190;6.808;2023-08-07T03:59:02;100992.94;;;18.90;69.34
62617;BME280;62539;51.190;6.808;2023-08-07T04:01:27;100990.31;;;18.90;69.18
62617;BME280;62539;51.190;6.808;2023-08-07T04:03:53;101002.56;;;18.91;69.33
62617;BME280;62539;51.190;6.808;2023-08-07T04:06:18;100988.56;;;18.90;69.28
62617;BME280;62539;51.190;6.808;2023-08-07T04:08:47;100989.47;;;18.89;69.27
62617;BME280;62539;51.190;6.808;2023-08-07T04:11:13;100982.44;;;18.90;69.42
62617;BME280;62539;51.190;6.808;2023-08-07T04:13:38;100989.47;;;18.89;69.25
62617;BME280;62539;51.190;6.808;2023-08-07T04:16:04;100992.09;;;18.89;69.41
62617;BME280;62539;51.190;6.808;2023-08-07T04:18:31;100996.47;;;18.89;69.20
62617;BME280;62539;51.190;6.808;2023-08-07T04:20:57;101000.00;;;18.89;69.34
62617;BME280;62539;51.190;6.808;2023-08-07T04:23:24;100997.34;;;18.89;69.39
62617;BME280;62539;51.190;6.808;2023-08-07T04:25:51;101002.63;;;18.89;69.29
62617;BME280;62539;51.190;6.808;2023-08-07T04:28:18;100996.47;;;18.89;69.11
62617;BME280;62539;51.190;6.808;2023-08-07T04:30:44;101004.38;;;18.89;69.28
62617;BME280;62539;51.190;6.808;2023-08-07T04:33:10;101007.00;;;18.89;69.48
62617;BME280;62539;51.190;6.808;2023-08-07T04:35:36;101014.03;;;18.88;69.42
62617;BME280;62539;51.190;6.808;2023-08-07T04:38:02;101001.66;;;18.92;69.16
62617;BME280;62539;51.190;6.808;2023-08-07T04:40:28;101005.19;;;18.91;69.26
62617;BME280;62539;51.190;6.808;2023-08-07T04:42:54;101008.59;;;18.94;69.27
62617;BME280;62539;51.190;6.808;2023-08-07T04:45:20;101001.66;;;18.92;69.40
62617;BME280;62539;51.190;6.808;2023-08-07T04:47:46;101001.66;;;18.92;69.40
62617;BME280;62539;51.190;6.808;2023-08-07T04:50:11;100994.66;;;18.91;69.32
62617;BME280;62539;51.190;6.808;2023-08-07T04:52:36;101003.47;;;18.90;69.28
62617;BME280;62539;51.190;6.808;2023-08-07T04:55:02;101003.47;;;18.90;69.42
62617;BME280;62539;51.190;6.808;2023-08-07T04:57:28;101006.97;;;18.90;69.35
62617;BME280;62539;51.190;6.808;2023-08-07T04:59:53;101001.66;;;18.92;69.16
62617;BME280;62539;51.190;6.808;2023-08-07T05:02:19;101009.53;;;18.92;69.20
62617;BME280;62539;51.190;6.808;2023-08-07T05:04:44;101019.22;;;18.90;69.38
62617;BME280;62539;51.190;6.808;2023-08-07T05:07:10;101011.34;;;18.90;69.29
62617;BME280;62539;51.190;6.808;2023-08-07T05:09:36;101001.59;;;18.93;68.90
62617;BME280;62539;51.190;6.808;2023-08-07T05:12:01;101011.25;;;18.93;68.54
62617;BME280;62539;51.190;6.808;2023-08-07T05:14:28;101013.88;;;18.93;68.53
62617;BME280;62539;51.190;6.808;2023-08-07T05:16:54;101012.06;;;18.95;68.24
62617;BME280;62539;51.190;6.808;2023-08-07T05:19:20;101009.44;;;18.95;68.35
62617;BME280;62539;51.190;6.808;2023-08-07T05:21:47;101008.53;;;18.96;67.72
62617;BME280;62539;51.190;6.808;2023-08-07T05:24:15;101021.66;;;18.96;67.32
62617;BME280;62539;51.190;6.808;2023-08-07T05:26:41;101018.19;;;18.95;67.07
62617;BME280;62539;51.190;6.808;2023-08-07T05:29:06;101014.63;;;18.98;67.78
62617;BME280;62539;51.190;6.808;2023-08-07T05:31:33;101019.84;;;19.00;68.88
62617;BME280;62539;51.190;6.808;2023-08-07T05:33:58;101012.75;;;19.02;69.57
62617;BME280;62539;51.190;6.808;2023-08-07T05:36:24;101015.31;;;19.03;69.48
62617;BME280;62539;51.190;6.808;2023-08-07T05:38:49;101023.28;;;19.02;69.65
62617;BME280;62539;51.190;6.808;2023-08-07T05:41:15;101018.94;;;19.01;69.48
62617;BME280;62539;51.190;6.808;2023-08-07T05:43:41;101013.72;;;18.99;69.36
62617;BME280;62539;51.190;6.808;2023-08-07T05:46:06;101025.09;;;19.00;69.35
62617;BME280;62539;51.190;6.808;2023-08-07T05:48:32;101026.91;;;18.98;69.36
62617;BME280;62539;51.190;6.808;2023-08-07T05:50:57;101036.56;;;18.97;69.12
62617;BME280;62539;51.190;6.808;2023-08-07T05:53:23;101022.50;;;18.98;68.98
62617;BME280;62539;51.190;6.808;2023-08-07T05:55:48;101033.94;;;18.97;69.16
62617;BME280;62539;51.190;6.808;2023-08-07T05:58:13;101033.97;;;18.95;69.03
62617;BME280;62539;51.190;6.808;2023-08-07T06:00:39;101022.56;;;18.97;69.28
62617;BME280;62539;51.190;6.808;2023-08-07T06:03:04;101030.47;;;18.95;69.08
62617;BME280;62539;51.190;6.808;2023-08-07T06:05:30;101033.97;;;18.95;68.90
62617;BME280;62539;51.190;6.808;2023-08-07T06:07:55;101033.09;;;18.95;68.72
62617;BME280;62539;51.190;6.808;2023-08-07T06:10:20;101038.34;;;18.95;69.12
62617;BME280;62539;51.190;6.808;2023-08-07T06:12:46;101036.63;;;18.94;69.08
62617;BME280;62539;51.190;6.808;2023-08-07T06:15:11;101041.88;;;18.94;69.24
62617;BME280;62539;51.190;6.808;2023-08-07T06:17:37;101048.03;;;18.94;69.03
62617;BME280;62539;51.190;6.808;2023-08-07T06:20:06;101052.41;;;18.94;68.98
62617;BME280;62539;51.190;6.808;2023-08-07T06:22:34;101050.69;;;18.93;69.07
62617;BME280;62539;51.190;6.808;2023-08-07T06:25:00;101049.78;;;18.94;68.89
62617;BME280;62539;51.190;6.808;2023-08-07T06:27:25;101045.41;;;18.93;69.01
62617;BME280;62539;51.190;6.808;2023-08-07T06:29:50;101052.41;;;18.94;68.95
62617;BME280;62539;51.190;6.808;2023-08-07T06:32:16;101055.03;;;18.94;68.78
62617;BME280;62539;51.190;6.808;2023-08-07T06:34:43;101064.69;;;18.93;69.02
62617;BME280;62539;51.190;6.808;2023-08-07T06:37:09;101057.66;;;18.94;68.93
62617;BME280;62539;51.190;6.808;2023-08-07T06:39:34;101056.81;;;18.93;69.03
62617;BME280;62539;51.190;6.808;2023-08-07T06:42:00;101068.19;;;18.94;69.17
62617;BME280;62539;51.190;6.808;2023-08-07T06:44:25;101083.94;;;18.94;68.99
62617;BME280;62539;51.190;6.808;2023-08-07T06:46:51;101083.13;;;18.92;69.21
62617;BME280;62539;51.190;6.808;2023-08-07T06:49:17;101086.56;;;18.94;69.26
62617;BME280;62539;51.190;6.808;2023-08-07T06:51:43;101089.22;;;18.94;69.08
62617;BME280;62539;51.190;6.808;2023-08-07T06:54:08;101090.94;;;18.95;69.01
62617;BME280;62539;51.190;6.808;2023-08-07T06:56:33;101078.69;;;18.94;69.08
62617;BME280;62539;51.190;6.808;2023-08-07T06:58:59;101079.56;;;18.94;68.90
62617;BME280;62539;51.190;6.808;2023-08-07T07:01:24;101087.47;;;18.93;68.91
62617;BME280;62539;51.190;6.808;2023-08-07T07:03:50;101108.53;;;18.93;69.06
62617;BME280;62539;51.190;6.808;2023-08-07T07:06:18;101094.56;;;18.91;68.98
62617;BME280;62539;51.190;6.808;2023-08-07T07:08:44;101091.03;;;18.92;68.96
62617;BME280;62539;51.190;6.808;2023-08-07T07:11:09;101095.44;;;18.91;68.94
62617;BME280;62539;51.190;6.808;2023-08-07T07:13:35;101105.06;;;18.91;68.92
62617;BME280;62539;51.190;6.808;2023-08-07T07:16:00;101108.59;;;18.90;69.15
62617;BME280;62539;51.190;6.808;2023-08-07T07:18:26;101110.34;;;18.91;69.13
62617;BME280;62539;51.190;6.808;2023-08-07T07:21:00;101108.59;;;18.90;69.20
62617;BME280;62539;51.190;6.808;2023-08-07T07:23:26;101111.22;;;18.91;69.12
62617;BME280;62539;51.190;6.808;2023-08-07T07:25:52;101115.59;;;18.91;69.03
62617;BME280;62539;51.190;6.808;2023-08-07T07:28:17;101120.84;;;18.91;68.82
62617;BME280;62539;51.190;6.808;2023-08-07T07:30:43;101116.47;;;18.91;69.04
62617;BME280;62539;51.190;6.808;2023-08-07T07:33:08;101125.16;;;18.93;68.84
62617;BME280;62539;51.190;6.808;2023-08-07T07:35:37;101136.53;;;18.94;68.83
62617;BME280;62539;51.190;6.808;2023-08-07T07:38:04;101140.06;;;18.93;68.80
62617;BME280;62539;51.190;6.808;2023-08-07T07:40:30;101147.03;;;18.94;68.95
62617;BME280;62539;51.190;6.808;2023-08-07T07:42:55;101140.06;;;18.93;69.08
62617;BME280;62539;51.190;6.808;2023-08-07T07:45:20;101145.31;;;18.93;68.91
62617;BME280;62539;51.190;6.808;2023-08-07T07:47:46;101141.88;;;18.91;68.95
62617;BME280;62539;51.190;6.808;2023-08-07T07:50:11;101152.31;;;18.94;68.75
62617;BME280;62539;51.190;6.808;2023-08-07T07:52:38;101168.88;;;18.96;68.87
62617;BME280;62539;51.190;6.808;2023-08-07T07:55:03;101168.00;;;18.97;68.72
62617;BME280;62539;51.190;6.808;2023-08-07T07:57:30;101166.25;;;18.98;68.85
62617;BME280;62539;51.190;6.808;2023-08-07T07:59:56;101185.50;;;18.98;68.93
62617;BME280;62539;51.190;6.808;2023-08-07T08:02:21;101176.72;;;18.99;68.58
62617;BME280;62539;51.190;6.808;2023-08-07T08:04:50;101182.78;;;19.01;68.53
62617;BME280;62539;51.190;6.808;2023-08-07T08:07:16;101192.41;;;19.02;68.41
62617;BME280;62539;51.190;6.808;2023-08-07T08:09:42;101203.81;;;19.03;68.57
62617;BME280;62539;51.190;6.808;2023-08-07T08:12:08;101209.88;;;19.05;68.56
62617;BME280;62539;51.190;6.808;2023-08-07T08:14:33;101209.81;;;19.06;68.42
62617;BME280;62539;51.190;6.808;2023-08-07T08:16:59;101211.53;;;19.07;68.43
62617;BME280;62539;51.190;6.808;2023-08-07T08:19:24;101216.75;;;19.09;68.31
62617;BME280;62539;51.190;6.808;2023-08-07T08:21:50;101225.50;;;19.09;68.24
62617;BME280;62539;51.190;6.808;2023-08-07T08:24:15;101230.72;;;19.11;68.21
62617;BME280;62539;51.190;6.808;2023-08-07T08:26:40;101232.44;;;19.12;68.10
62617;BME280;62539;51.190;6.808;2023-08-07T08:29:06;101237.66;;;19.14;68.05
62617;BME280;62539;51.190;6.808;2023-08-07T08:31:33;101242.00;;;19.15;67.97
62617;BME280;62539;51.190;6.808;2023-08-07T08:33:59;101242.88;;;19.15;68.16
62617;BME280;62539;51.190;6.808;2023-08-07T08:36:25;101243.69;;;19.17;67.88
62617;BME280;62539;51.190;6.808;2023-08-07T08:38:50;101243.63;;;19.19;67.86
62617;BME280;62539;51.190;6.808;2023-08-07T08:41:16;101246.25;;;19.19;67.97
62617;BME280;62539;51.190;6.808;2023-08-07T08:43:46;101248.88;;;19.20;67.91
62617;BME280;62539;51.190;6.808;2023-08-07T08:46:15;101253.16;;;19.23;67.79
62617;BME280;62539;51.190;6.808;2023-08-07T08:48:48;101249.63;;;19.24;67.72
62617;BME280;62539;51.190;6.808;2023-08-07T08:51:16;101249.53;;;19.27;67.51
62617;BME280;62539;51.190;6.808;2023-08-07T08:53:45;101272.28;;;19.28;67.78
62617;BME280;62539;51.190;6.808;2023-08-07T08:56:11;101252.97;;;19.29;67.63
62617;BME280;62539;51.190;6.808;2023-08-07T08:58:37;101248.53;;;19.31;67.43
62617;BME280;62539;51.190;6.808;2023-08-07T09:01:04;101241.50;;;19.32;67.36
62617;BME280;62539;51.190;6.808;2023-08-07T09:03:31;101244.09;;;19.33;67.37
62617;BME280;62539;51.190;6.808;2023-08-07T09:05:58;101246.63;;;19.36;67.14
62617;BME280;62539;51.190;6.808;2023-08-07T09:08:27;101247.41;;;19.40;67.18
62617;BME280;62539;51.190;6.808;2023-08-07T09:10:56;101251.66;;;19.44;67.26
62617;BME280;62539;51.190;6.808;2023-08-07T09:13:23;101260.28;;;19.49;66.90
62617;BME280;62539;51.190;6.808;2023-08-07T09:15:53;101261.81;;;19.57;66.79
62617;BME280;62539;51.190;6.808;2023-08-07T09:18:18;101261.56;;;19.64;66.77
62617;BME280;62539;51.190;6.808;2023-08-07T09:20:45;101259.63;;;19.71;66.58
62617;BME280;62539;51.190;6.808;2023-08-07T09:23:11;101266.34;;;19.80;66.54
62617;BME280;62539;51.190;6.808;2023-08-07T09:25:36;101268.72;;;19.89;66.22
62617;BME280;62539;51.190;6.808;2023-08-07T09:28:06;101280.75;;;19.96;66.00
62617;BME280;62539;51.190;6.808;2023-08-07T09:30:34;101276.06;;;20.06;65.59
62617;BME280;62539;51.190;6.808;2023-08-07T09:33:01;101268.78;;;20.15;65.61
62617;BME280;62539;51.190;6.808;2023-08-07T09:35:28;101272.03;;;20.23;65.25
62617;BME280;62539;51.190;6.808;2023-08-07T09:37:56;101281.34;;;20.33;65.17
62617;BME280;62539;51.190;6.808;2023-08-07T09:40:22;101281.97;;;20.40;64.74
62617;BME280;62539;51.190;6.808;2023-08-07T09:42:54;101287.00;;;20.48;64.51
62617;BME280;62539;51.190;6.808;2023-08-07T09:45:23;101281.44;;;20.55;64.43
62617;BME280;62539;51.190;6.808;2023-08-07T09:48:02;101286.50;;;20.62;64.03
62617;BME280;62539;51.190;6.808;2023-08-07T09:50:29;101292.38;;;20.70;63.94
62617;BME280;62539;51.190;6.808;2023-08-07T09:52:56;101293.88;;;20.77;63.54
62617;BME280;62539;51.190;6.808;2023-08-07T09:55:26;101291.03;;;20.83;63.62
62617;BME280;62539;51.190;6.808;2023-08-07T09:57:53;101300.44;;;20.91;63.18
62617;BME280;62539;51.190;6.808;2023-08-07T10:00:19;101299.31;;;20.98;63.07
62617;BME280;62539;51.190;6.808;2023-08-07T10:02:46;101306.09;;;21.05;62.91
62617;BME280;62539;51.190;6.808;2023-08-07T10:05:13;101305.84;;;21.11;62.71
62617;BME280;62539;51.190;6.808;2023-08-07T10:07:39;101300.31;;;21.19;62.33
62617;BME280;62539;51.190;6.808;2023-08-07T10:10:09;101304.38;;;21.28;62.05
62617;BME280;62539;51.190;6.808;2023-08-07T10:12:36;101296.25;;;21.33;62.15
62617;BME280;62539;51.190;6.808;2023-08-07T10:15:03;101312.75;;;21.39;61.61
62617;BME280;62539;51.190;6.808;2023-08-07T10:17:30;101308.94;;;21.47;61.35
62617;BME280;62539;51.190;6.808;2023-08-07T10:19:57;101296.31;;;21.55;61.26
62617;BME280;62539;51.190;6.808;2023-08-07T10:22:25;101300.44;;;21.62;61.38
62617;BME280;62539;51.190;6.808;2023-08-07T10:24:53;101287.03;;;21.68;60.99
62617;BME280;62539;51.190;6.808;2023-08-07T10:27:23;101299.91;;;21.76;60.83
62617;BME280;62539;51.190;6.808;2023-08-07T10:29:52;101289.72;;;21.89;60.54
62617;BME280;62539;51.190;6.808;2023-08-07T10:32:20;101290.31;;;21.96;60.13
62617;BME280;62539;51.190;6.808;2023-08-07T10:34:49;101290.03;;;22.03;60.14
62617;BME280;62539;51.190;6.808;2023-08-07T10:37:39;101283.44;;;22.14;59.14
62617;BME280;62539;51.190;6.808;2023-08-07T10:40:06;101291.50;;;22.31;59.26
62617;BME280;62539;51.190;6.808;2023-08-07T10:42:57;101290.91;;;22.47;58.92
62617;BME280;62539;51.190;6.808;2023-08-07T10:45:25;101289.34;;;22.62;58.63
62617;BME280;62539;51.190;6.808;2023-08-07T10:48:10;101287.91;;;22.75;58.03
62617;BME280;62539;51.190;6.808;2023-08-07T10:50:51;101286.50;;;22.87;57.50
62617;BME280;62539;51.190;6.808;2023-08-07T10:53:35;101285.03;;;23.01;57.13
62617;BME280;62539;51.190;6.808;2023-08-07T10:56:08;101300.47;;;23.10;57.03
62617;BME280;62539;51.190;6.808;2023-08-07T10:58:37;101293.97;;;23.17;56.93
62617;BME280;62539;51.190;6.808;2023-08-07T11:01:27;101289.22;;;23.26;55.95
62617;BME280;62539;51.190;6.808;2023-08-07T11:04:08;101301.25;;;23.33;55.85
62617;BME280;62539;51.190;6.808;2023-08-07T11:06:36;101314.97;;;23.41;55.78
62617;BME280;62539;51.190;6.808;2023-08-07T11:09:05;101312.84;;;23.49;55.86
62617;BME280;62539;51.190;6.808;2023-08-07T11:11:54;101307.00;;;23.60;55.27
62617;BME280;62539;51.190;6.808;2023-08-07T11:14:19;101310.25;;;23.67;55.00
62617;BME280;62539;51.190;6.808;2023-08-07T11:16:47;101310.66;;;23.77;55.01
62617;BME280;62539;51.190;6.808;2023-08-07T11:19:14;101316.03;;;23.93;54.79
62617;BME280;62539;51.190;6.808;2023-08-07T11:21:42;101313.31;;;24.14;54.74
62617;BME280;62539;51.190;6.808;2023-08-07T11:24:08;101313.25;;;24.33;54.20
62617;BME280;62539;51.190;6.808;2023-08-07T11:26:38;101311.59;;;24.48;53.97
62617;BME280;62539;51.190;6.808;2023-08-07T11:29:04;101301.91;;;24.64;53.00
62617;BME280;62539;51.190;6.808;2023-08-07T11:31:29;101301.06;;;24.82;52.73
62617;BME280;62539;51.190;6.808;2023-08-07T11:33:56;101307.78;;;25.05;52.17
62617;BME280;62539;51.190;6.808;2023-08-07T11:36:23;101304.91;;;25.25;51.95
62617;BME280;62539;51.190;6.808;2023-08-07T11:38:50;101312.66;;;25.46;51.38
62617;BME280;62539;51.190;6.808;2023-08-07T11:41:17;101311.38;;;25.70;50.92
62617;BME280;62539;51.190;6.808;2023-08-07T11:43:43;101302.25;;;25.90;50.19
62617;BME280;62539;51.190;6.808;2023-08-07T11:46:10;101319.03;;;26.06;50.03
62617;BME280;62539;51.190;6.808;2023-08-07T11:48:39;101314.56;;;26.23;49.21
62617;BME280;62539;51.190;6.808;2023-08-07T11:51:06;101315.16;;;26.28;48.58
62617;BME280;62539;51.190;6.808;2023-08-07T11:53:34;101311.38;;;26.32;48.15
62617;BME280;62539;51.190;6.808;2023-08-07T11:56:03;101311.00;;;26.38;47.86
62617;BME280;62539;51.190;6.808;2023-08-07T11:58:35;101306.44;;;26.40;47.69
62617;BME280;62539;51.190;6.808;2023-08-07T12:01:05;101298.84;;;26.34;47.19
62617;BME280;62539;51.190;6.808;2023-08-07T12:03:35;101305.38;;;26.12;46.49
62617;BME280;62539;51.190;6.808;2023-08-07T12:06:06;101316.63;;;26.18;47.61
62617;BME280;62539;51.190;6.808;2023-08-07T12:08:33;101323.84;;;26.16;47.79
62617;BME280;62539;51.190;6.808;2023-08-07T12:11:05;101325.22;;;26.07;47.96
62617;BME280;62539;51.190;6.808;2023-08-07T12:13:32;101323.16;;;25.96;48.35
62617;BME280;62539;51.190;6.808;2023-08-07T12:16:01;101321.09;;;26.01;48.52
62617;BME280;62539;51.190;6.808;2023-08-07T12:18:30;101317.50;;;26.02;48.74
62617;BME280;62539;51.190;6.808;2023-08-07T12:21:00;101320.38;;;26.13;48.63
62617;BME280;62539;51.190;6.808;2023-08-07T12:23:28;101316.22;;;26.25;48.90
62617;BME280;62539;51.190;6.808;2023-08-07T12:25:53;101323.31;;;26.25;48.74
62617;BME280;62539;51.190;6.808;2023-08-07T12:28:19;101327.44;;;26.31;48.71
62617;BME280;62539;51.190;6.808;2023-08-07T12:30:46;101311.19;;;26.35;48.63
62617;BME280;62539;51.190;6.808;2023-08-07T12:33:13;101311.03;;;26.53;48.59
62617;BME280;62539;51.190;6.808;2023-08-07T12:35:40;101324.94;;;26.73;48.34
62617;BME280;62539;51.190;6.808;2023-08-07T12:38:07;101316.31;;;26.83;47.96
62617;BME280;62539;51.190;6.808;2023-08-07T12:40:33;101318.50;;;26.91;47.65
62617;BME280;62539;51.190;6.808;2023-08-07T12:43:01;101313.75;;;26.96;47.63
62617;BME280;62539;51.190;6.808;2023-08-07T12:45:27;101317.16;;;27.13;47.22
62617;BME280;62539;51.190;6.808;2023-08-07T12:47:53;101318.88;;;27.28;47.04
62617;BME280;62539;51.190;6.808;2023-08-07T12:50:18;101327.44;;;27.34;46.65
62617;BME280;62539;51.190;6.808;2023-08-07T12:52:43;101337.38;;;27.44;46.55